createdAt,value
2023-07-24T00:00:23.450Z,100175.66
2023-07-24T00:02:51.294Z,100164.72
2023-07-24T00:05:18.685Z,100167.47
2023-07-24T00:07:45.817Z,100162.41
2023-07-24T00:10:13.066Z,100163.97
2023-07-24T00:12:40.317Z,100149.84
2023-07-24T00:15:08.449Z,100152.25
2023-07-24T00:17:35.740Z,100134.22
2023-07-24T00:20:03.018Z,100128.38
2023-07-24T00:22:30.311Z,100136.19
2023-07-24T00:24:57.612Z,100137.41
2023-07-24T00:27:24.887Z,100135.81
2023-07-24T00:29:52.146Z,100130.34
2023-07-24T00:32:19.486Z,100128.75
2023-07-24T00:34:46.651Z,100117.03
2023-07-24T00:37:13.874Z,100117.75
2023-07-24T00:39:41.178Z,100117.00
2023-07-24T00:42:08.476Z,100116.22
2023-07-24T00:44:35.889Z,100113.44
2023-07-24T00:47:03.192Z,100107.56
2023-07-24T00:49:30.510Z,100099.78
2023-07-24T00:51:57.797Z,100101.28
2023-07-24T00:54:25.310Z,100092.72
2023-07-24T00:56:52.667Z,100087.19
2023-07-24T00:59:20.196Z,100084.03
2023-07-24T01:01:47.802Z,100087.16
2023-07-24T01:04:15.896Z,100076.59
2023-07-24T01:06:43.113Z,100074.63
2023-07-24T01:09:10.473Z,100072.69
2023-07-24T01:11:47.202Z,100067.22
2023-07-24T01:14:22.378Z,100068.00
2023-07-24T01:16:51.150Z,100065.28
2023-07-24T01:19:41.616Z,100068.44
2023-07-24T01:22:22.334Z,100070.78
2023-07-24T01:24:59.015Z,100066.06
2023-07-24T01:27:26.691Z,100065.28
2023-07-24T01:29:54.175Z,100054.72
2023-07-24T01:32:21.980Z,100056.66
2023-07-24T01:34:50.122Z,100053.16
2023-07-24T01:37:18.000Z,100050.84
2023-07-24T01:39:46.464Z,100046.84
2023-07-24T01:42:14.459Z,100046.47
2023-07-24T01:44:41.770Z,100041.75
2023-07-24T01:47:09.083Z,100037.84
2023-07-24T01:49:36.446Z,100033.06
2023-07-24T01:52:03.970Z,100020.16
2023-07-24T01:54:31.332Z,100016.97
2023-07-24T01:56:58.733Z,100011.88
2023-07-24T01:59:25.978Z,100003.28
2023-07-24T02:01:53.177Z,100008.00
2023-07-24T02:04:23.330Z,100000.94
2023-07-24T02:06:51.263Z,100003.69
2023-07-24T02:09:21.753Z,99996.28
2023-07-24T02:11:49.127Z,99987.69
2023-07-24T02:14:19.928Z,99995.56
2023-07-24T02:16:47.240Z,99994.34
2023-07-24T02:19:14.636Z,99989.25
2023-07-24T02:21:41.955Z,99984.19
2023-07-24T02:24:09.307Z,99970.91
2023-07-24T02:26:36.941Z,99977.53
2023-07-24T02:29:04.129Z,99971.31
2023-07-24T02:31:31.350Z,99956.13
2023-07-24T02:33:58.604Z,99954.56
2023-07-24T02:36:25.905Z,99939.31
2023-07-24T02:38:53.151Z,99941.75
2023-07-24T02:41:20.382Z,99944.81
2023-07-24T02:43:47.664Z,99934.28
2023-07-24T02:46:14.949Z,99932.31
2023-07-24T02:48:42.275Z,99934.31
2023-07-24T02:51:09.583Z,99944.91
2023-07-24T02:53:36.956Z,99939.50
2023-07-24T02:56:04.312Z,99938.34
2023-07-24T02:58:31.577Z,99945.00
2023-07-24T03:01:07.254Z,99949.28
2023-07-24T03:03:35.513Z,99951.63
2023-07-24T03:06:03.202Z,99946.59
2023-07-24T03:08:30.327Z,99935.63
2023-07-24T03:10:57.636Z,99938.03
2023-07-24T03:13:24.946Z,99938.03
2023-07-24T03:15:59.085Z,99933.34
2023-07-24T03:18:26.763Z,99934.09
2023-07-24T03:20:53.912Z,99932.94
2023-07-24T03:23:21.613Z,99931.78
2023-07-24T03:25:48.951Z,99935.28
2023-07-24T03:28:16.099Z,99942.69
2023-07-24T03:30:43.283Z,99935.69
2023-07-24T03:33:10.513Z,99934.88
2023-07-24T03:35:37.757Z,99929.03
2023-07-24T03:38:05.010Z,99927.09
2023-07-24T03:40:32.356Z,99930.66
2023-07-24T03:42:59.622Z,99928.69
2023-07-24T03:45:26.911Z,99932.22
2023-07-24T03:47:54.247Z,99931.06
2023-07-24T03:50:21.622Z,99922.44
2023-07-24T03:52:49.107Z,99919.72
2023-07-24T03:55:16.393Z,99926.34
2023-07-24T03:57:46.926Z,99931.81
2023-07-24T04:00:15.110Z,99931.84
2023-07-24T04:02:42.415Z,99939.66
2023-07-24T04:05:09.764Z,99946.34
2023-07-24T04:07:38.286Z,99951.44
2023-07-24T04:10:06.205Z,99968.19
2023-07-24T04:12:33.679Z,99967.47
2023-07-24T04:15:00.823Z,99974.13
2023-07-24T04:17:27.974Z,99971.41
2023-07-24T04:19:55.372Z,99982.75
2023-07-24T04:22:22.614Z,99982.38
2023-07-24T04:24:50.444Z,99985.50
2023-07-24T04:27:17.697Z,99980.84
2023-07-24T04:29:45.046Z,99982.03
2023-07-24T04:32:12.353Z,99985.53
2023-07-24T04:34:39.722Z,99982.81
2023-07-24T04:37:07.081Z,99996.09
2023-07-24T04:39:34.799Z,99993.78
2023-07-24T04:42:02.109Z,99992.25
2023-07-24T04:44:29.407Z,99989.13
2023-07-24T04:46:57.136Z,99992.63
2023-07-24T04:49:26.451Z,99987.19
2023-07-24T04:51:55.634Z,99982.09
2023-07-24T04:54:27.204Z,99984.78
2023-07-24T04:56:57.043Z,99981.28
2023-07-24T04:59:25.707Z,99977.34
2023-07-24T05:01:54.934Z,99965.22
2023-07-24T05:04:25.958Z,99964.06
2023-07-24T05:06:55.407Z,99961.34
2023-07-24T05:09:25.024Z,99964.44
2023-07-24T05:11:54.641Z,99964.06
2023-07-24T05:14:24.334Z,99971.09
2023-07-24T05:16:52.702Z,99969.56
2023-07-24T05:19:23.056Z,99971.16
2023-07-24T05:21:56.141Z,99971.19
2023-07-24T05:24:25.191Z,99964.19
2023-07-24T05:26:54.833Z,99970.09
2023-07-24T05:29:24.734Z,99975.19
2023-07-24T05:31:55.295Z,99970.13
2023-07-24T05:34:25.024Z,99983.81
2023-07-24T05:36:52.871Z,99976.78
2023-07-24T05:39:24.498Z,99978.78
2023-07-24T05:41:52.336Z,99972.91
2023-07-24T05:44:19.930Z,99975.28
2023-07-24T05:46:50.048Z,99987.81
2023-07-24T05:49:17.350Z,99979.22
2023-07-24T05:51:44.657Z,99983.50
2023-07-24T05:54:13.677Z,99985.88
2023-07-24T05:56:41.068Z,99998.00
2023-07-24T05:59:08.428Z,99988.59
2023-07-24T06:01:35.559Z,99989.41
2023-07-24T06:04:02.844Z,99996.03
2023-07-24T06:06:30.480Z,99994.09
2023-07-24T06:08:58.120Z,99986.66
2023-07-24T06:11:25.397Z,99999.56
2023-07-24T06:13:53.283Z,99997.22
2023-07-24T06:16:20.548Z,100000.75
2023-07-24T06:18:47.886Z,100021.50
2023-07-24T06:21:15.436Z,100026.19
2023-07-24T06:23:42.715Z,100030.50
2023-07-24T06:26:09.996Z,100019.91
2023-07-24T06:28:41.262Z,100041.84
2023-07-24T06:31:08.528Z,100028.53
2023-07-24T06:33:38.644Z,100024.16
2023-07-24T06:36:10.562Z,100031.56
2023-07-24T06:38:37.926Z,100036.19
2023-07-24T06:41:05.301Z,100042.06
2023-07-24T06:43:32.706Z,100045.94
2023-07-24T06:46:00.153Z,100050.59
2023-07-24T06:48:27.460Z,100049.41
2023-07-24T06:50:54.845Z,100045.56
2023-07-24T06:53:22.248Z,100038.50
2023-07-24T06:55:50.391Z,100042.84
2023-07-24T06:58:17.646Z,100035.41
2023-07-24T07:00:44.976Z,100033.84
2023-07-24T07:03:12.532Z,100031.16
2023-07-24T07:05:39.845Z,100033.53
2023-07-24T07:08:07.046Z,100026.09
2023-07-24T07:10:34.551Z,100030.81
2023-07-24T07:13:01.880Z,100021.44
2023-07-24T07:15:29.272Z,100013.25
2023-07-24T07:17:56.804Z,99993.69
2023-07-24T07:20:24.421Z,99979.22
2023-07-24T07:22:51.989Z,99976.09
2023-07-24T07:25:19.323Z,99949.84
2023-07-24T07:27:49.043Z,99920.53
2023-07-24T07:30:17.564Z,99897.06
2023-07-24T07:32:45.052Z,99883.75
2023-07-24T07:35:15.627Z,99871.22
2023-07-24T07:37:43.176Z,99845.03
2023-07-24T07:40:11.469Z,99844.69
2023-07-24T07:42:40.040Z,99825.53
2023-07-24T07:45:08.234Z,99821.22
2023-07-24T07:47:35.446Z,99816.91
2023-07-24T07:50:02.870Z,99798.19
2023-07-24T07:52:30.215Z,99785.28
2023-07-24T07:54:59.086Z,99786.06
2023-07-24T07:57:27.496Z,99768.81
2023-07-24T07:59:54.840Z,99772.34
2023-07-24T08:02:22.337Z,99760.63
2023-07-24T08:04:50.133Z,99757.88
2023-07-24T08:07:17.709Z,99747.72
2023-07-24T08:09:47.849Z,99727.81
2023-07-24T08:12:15.215Z,99711.00
2023-07-24T08:14:42.461Z,99695.75
2023-07-24T08:17:09.908Z,99693.03
2023-07-24T08:19:37.316Z,99672.34
2023-07-24T08:22:06.614Z,99659.06
2023-07-24T08:24:37.252Z,99658.66
2023-07-24T08:27:04.912Z,99658.28
2023-07-24T08:29:32.212Z,99639.53
2023-07-24T08:31:59.769Z,99626.66
2023-07-24T08:34:27.193Z,99627.41
2023-07-24T08:36:54.448Z,99598.91
2023-07-24T08:39:21.730Z,99589.13
2023-07-24T08:41:49.172Z,99584.44
2023-07-24T08:44:17.424Z,99558.28
2023-07-24T08:46:47.335Z,99548.16
2023-07-24T08:49:15.064Z,99530.28
2023-07-24T08:51:43.387Z,99511.16
2023-07-24T08:54:12.629Z,99514.69
2023-07-24T08:56:41.443Z,99502.19
2023-07-24T08:59:08.743Z,99497.88
2023-07-24T09:01:36.005Z,99495.94
2023-07-24T09:04:03.316Z,99477.22
2023-07-24T09:06:30.779Z,99480.34
2023-07-24T09:08:58.092Z,99478.41
2023-07-24T09:11:25.309Z,99459.66
2023-07-24T09:13:55.318Z,99455.38
2023-07-24T09:16:27.257Z,99463.16
2023-07-24T09:21:31.911Z,99484.63
2023-07-24T09:24:16.500Z,99490.50
2023-07-24T09:26:58.542Z,99483.88
2023-07-24T09:29:33.729Z,99483.84
2023-07-24T09:32:05.560Z,99480.75
2023-07-24T09:34:33.005Z,99484.66
2023-07-24T09:37:04.877Z,99483.06
2023-07-24T09:39:32.769Z,99485.44
2023-07-24T09:42:07.454Z,99477.63
2023-07-24T09:44:34.968Z,99472.94
2023-07-24T09:47:29.012Z,99453.38
2023-07-24T09:49:55.090Z,99459.22
2023-07-24T09:52:22.967Z,99468.22
2023-07-24T09:55:12.084Z,99474.84
2023-07-24T09:57:41.720Z,99489.69
2023-07-24T10:00:16.485Z,99484.59
2023-07-24T10:02:49.277Z,99483.03
2023-07-24T10:05:21.469Z,99500.16
2023-07-24T10:07:51.568Z,99487.25
2023-07-24T10:10:20.691Z,99508.75
2023-07-24T10:12:58.409Z,99513.81
2023-07-24T10:15:35.428Z,99529.78
2023-07-24T10:18:08.476Z,99479.50
2023-07-24T10:20:42.396Z,99504.78
2023-07-24T10:23:12.416Z,99514.78
2023-07-24T10:25:47.361Z,99526.09
2023-07-24T10:28:21.974Z,99548.47
2023-07-24T10:31:00.633Z,99547.69
2023-07-24T10:33:31.975Z,99537.16
2023-07-24T10:36:15.181Z,99558.56
2023-07-24T10:38:43.521Z,99555.44
2023-07-24T10:41:12.485Z,99557.28
2023-07-24T10:43:50.210Z,99575.94
2023-07-24T10:46:22.085Z,99590.34
2023-07-24T10:48:52.048Z,99570.31
2023-07-24T10:51:20.842Z,99615.22
2023-07-24T10:53:50.494Z,99613.09
2023-07-24T10:56:18.946Z,99627.41
2023-07-24T10:58:46.328Z,99648.09
2023-07-24T11:01:15.364Z,99686.31
2023-07-24T11:03:43.575Z,99712.00
2023-07-24T11:06:38.079Z,99747.81
2023-07-24T11:09:05.344Z,99762.03
2023-07-24T11:11:37.082Z,99792.09
2023-07-24T11:14:05.198Z,99800.16
2023-07-24T11:16:34.424Z,99820.53
2023-07-24T11:19:02.264Z,99853.13
2023-07-24T11:21:31.584Z,99852.47
2023-07-24T11:23:59.530Z,99863.16
2023-07-24T11:26:28.033Z,99880.13
2023-07-24T11:28:55.654Z,99887.22
2023-07-24T11:31:23.266Z,99901.41
2023-07-24T11:33:52.972Z,99924.00
2023-07-24T11:36:20.887Z,99930.31
2023-07-24T11:38:49.105Z,99923.97
2023-07-24T11:41:18.311Z,99911.00
2023-07-24T11:43:50.329Z,99919.84
2023-07-24T11:46:28.383Z,99926.03
2023-07-24T11:48:58.784Z,99917.97
2023-07-24T11:51:31.248Z,99913.47
2023-07-24T11:54:13.684Z,99903.00
2023-07-24T11:56:40.938Z,99887.13
2023-07-24T11:59:15.464Z,99882.41
2023-07-24T12:01:50.334Z,99868.25
2023-07-24T12:04:19.106Z,99855.56
2023-07-24T12:06:46.561Z,99857.63
2023-07-24T12:09:13.895Z,99874.78
2023-07-24T12:11:46.572Z,99885.75
2023-07-24T12:14:15.363Z,99900.59
2023-07-24T12:16:42.752Z,99900.59
2023-07-24T12:19:10.102Z,99909.75
2023-07-24T12:21:37.469Z,99909.59
2023-07-24T12:24:04.885Z,99911.22
2023-07-24T12:26:32.083Z,99920.47
2023-07-24T12:29:01.862Z,99939.16
2023-07-24T12:31:30.235Z,99946.94
2023-07-24T12:33:57.875Z,99946.94
2023-07-24T12:36:25.606Z,99940.28
2023-07-24T12:38:52.970Z,99937.06
2023-07-24T12:41:20.521Z,99949.72
2023-07-24T12:43:47.920Z,99952.56
2023-07-24T12:46:18.164Z,99945.97
2023-07-24T12:48:46.041Z,99943.44
2023-07-24T12:51:13.354Z,99933.16
2023-07-24T12:53:49.791Z,73387.22
2023-07-24T12:56:20.464Z,73387.22
2023-07-24T12:58:47.874Z,73387.22
2023-07-24T13:01:15.166Z,73387.22
2023-07-24T13:03:42.722Z,73387.22
2023-07-24T13:06:10.133Z,73387.22
2023-07-24T13:08:37.541Z,73387.22
2023-07-24T13:11:04.805Z,73387.22
2023-07-24T13:13:32.104Z,73387.22
2023-07-24T13:15:59.547Z,73387.22
2023-07-24T13:18:28.810Z,73387.22
2023-07-24T13:20:57.884Z,73387.22
2023-07-24T13:23:25.302Z,73387.22
2023-07-24T13:25:53.640Z,73387.22
2023-07-24T13:28:21.043Z,73387.22
2023-07-24T13:30:48.452Z,73387.22
2023-07-24T13:33:15.908Z,73387.22
2023-07-24T13:35:43.178Z,73387.22
2023-07-24T13:38:10.579Z,73387.22
2023-07-24T13:40:40.730Z,73387.22
2023-07-24T13:43:08.119Z,73387.22
2023-07-24T13:45:35.667Z,73387.22
2023-07-24T13:48:03.501Z,73387.22
2023-07-24T13:50:30.961Z,73387.22
2023-07-24T13:52:58.392Z,73387.22
2023-07-24T13:55:25.741Z,73387.22
2023-07-24T13:57:53.074Z,73387.22
2023-07-24T14:00:20.419Z,73387.22
2023-07-24T14:02:49.236Z,73387.22
2023-07-24T14:05:18.558Z,73387.22
2023-07-24T14:07:47.087Z,73387.22
2023-07-24T14:10:14.821Z,73387.22
2023-07-24T14:12:42.155Z,73387.22
2023-07-24T14:15:09.809Z,73387.22
2023-07-24T14:17:37.488Z,73387.22
2023-07-24T14:20:08.843Z,73387.22
2023-07-24T14:22:36.008Z,73387.22
2023-07-24T14:25:05.113Z,73387.22
2023-07-24T14:27:32.822Z,73387.22
2023-07-24T14:30:00.405Z,73387.22
2023-07-24T14:32:27.874Z,73387.22
2023-07-24T14:34:55.087Z,73387.22
2023-07-24T14:37:22.419Z,73387.22
2023-07-24T14:39:51.934Z,73387.22
2023-07-24T14:42:20.159Z,73387.22
2023-07-24T14:44:47.317Z,73387.22
2023-07-24T14:47:15.023Z,73387.22
2023-07-24T14:49:42.241Z,73387.22
2023-07-24T14:52:09.624Z,73387.22
2023-07-24T14:54:39.300Z,73387.22
2023-07-24T14:57:19.277Z,73387.22
2023-07-24T14:59:51.779Z,73387.22
2023-07-24T15:02:19.221Z,73387.22
2023-07-24T15:04:48.538Z,73387.22
2023-07-24T15:07:22.408Z,73387.22
2023-07-24T15:09:50.423Z,73387.22
2023-07-24T15:12:17.757Z,73387.22
2023-07-24T15:14:45.811Z,73387.22
2023-07-24T15:17:15.980Z,73387.22
2023-07-24T15:19:43.301Z,73387.22
2023-07-24T15:22:10.595Z,73387.22
2023-07-24T15:24:37.818Z,73387.22
2023-07-24T15:27:10.065Z,73387.22
2023-07-24T15:29:38.068Z,73387.22
2023-07-24T15:32:06.968Z,73387.22
2023-07-24T15:34:40.276Z,73387.22
2023-07-24T15:37:09.060Z,73387.22
2023-07-24T15:39:36.388Z,73387.22
2023-07-24T15:42:04.213Z,73387.22
2023-07-24T15:44:31.599Z,73387.22
2023-07-24T15:46:58.848Z,73387.22
2023-07-24T15:49:26.619Z,73387.22
2023-07-24T15:51:53.945Z,73387.22
2023-07-24T15:54:21.096Z,73387.22
2023-07-24T15:56:48.875Z,73387.22
2023-07-24T15:59:16.326Z,73387.22
2023-07-24T16:01:43.677Z,73387.22
2023-07-24T16:04:11.048Z,73387.22
2023-07-24T16:06:38.920Z,73387.22
2023-07-24T16:09:08.540Z,73387.22
2023-07-24T16:11:36.535Z,73387.22
2023-07-24T16:14:05.009Z,73387.22
2023-07-24T16:16:32.560Z,73387.22
2023-07-24T16:19:20.879Z,73387.22
2023-07-24T16:21:51.255Z,73387.22
2023-07-24T16:24:19.500Z,73387.22
2023-07-24T16:26:51.047Z,73387.22
2023-07-24T16:29:18.811Z,73387.22
2023-07-24T16:31:46.108Z,73387.22
2023-07-24T16:34:13.952Z,73387.22
2023-07-24T16:36:41.449Z,73387.22
2023-07-24T16:39:08.622Z,73387.22
2023-07-24T16:41:36.397Z,73387.22
2023-07-24T16:44:05.084Z,73387.22
2023-07-24T16:46:33.125Z,73387.22
2023-07-24T16:49:00.835Z,73387.22
2023-07-24T16:51:28.402Z,73387.22
2023-07-24T16:53:55.975Z,73387.22
2023-07-24T16:56:23.437Z,73387.22
2023-07-24T16:58:50.942Z,73387.22
2023-07-24T17:01:18.942Z,73387.22
2023-07-24T17:03:46.349Z,73387.22
2023-07-24T17:06:13.975Z,73387.22
2023-07-24T17:08:42.063Z,73387.22
2023-07-24T17:11:09.479Z,73387.22
2023-07-24T17:13:37.169Z,73387.22
2023-07-24T17:16:04.926Z,73387.22
2023-07-24T17:18:32.866Z,73387.22
2023-07-24T17:21:01.023Z,73387.22
2023-07-24T17:23:29.043Z,73387.22
2023-07-24T17:25:56.590Z,73387.22
2023-07-24T17:28:23.947Z,73387.22
2023-07-24T17:30:52.139Z,73387.22
2023-07-24T17:33:20.553Z,73387.22
2023-07-24T17:35:48.865Z,73387.22
2023-07-24T17:38:16.888Z,73387.22
2023-07-24T17:40:44.178Z,73387.22
2023-07-24T17:43:11.491Z,73387.22
2023-07-24T17:45:39.016Z,73387.22
2023-07-24T17:48:06.851Z,73387.22
2023-07-24T17:50:35.732Z,73387.22
2023-07-24T17:53:03.109Z,73387.22
2023-07-24T17:55:30.867Z,73387.22
2023-07-24T17:58:01.492Z,73387.22
2023-07-24T18:00:29.787Z,73387.22
2023-07-24T18:02:57.126Z,73387.22
2023-07-24T18:05:27.620Z,73387.22
2023-07-24T18:07:54.943Z,73387.22
2023-07-24T18:10:22.114Z,73387.22
2023-07-24T18:12:50.487Z,73387.22
2023-07-24T18:15:17.788Z,73387.22
2023-07-24T18:17:47.735Z,73387.22
2023-07-24T18:20:18.819Z,73387.22
2023-07-24T18:22:46.862Z,73387.22
2023-07-24T18:25:14.128Z,73387.22
2023-07-24T18:27:44.527Z,73387.22
2023-07-24T18:30:12.921Z,73387.22
2023-07-24T18:32:41.284Z,73387.22
2023-07-24T18:35:11.420Z,73387.22
2023-07-24T18:37:39.014Z,73387.22
2023-07-24T18:40:06.938Z,73387.22
2023-07-24T18:42:34.581Z,73387.22
2023-07-24T18:45:02.031Z,73387.22
2023-07-24T18:47:29.304Z,73387.22
2023-07-24T18:49:56.919Z,73387.22
2023-07-24T18:52:24.414Z,73387.22
2023-07-24T18:54:51.807Z,73387.22
2023-07-24T18:57:18.985Z,73387.22
2023-07-24T18:59:47.648Z,73387.22
2023-07-24T19:02:15.920Z,73387.22
2023-07-24T19:04:45.093Z,73387.22
2023-07-24T19:07:12.541Z,73387.22
2023-07-24T19:09:39.768Z,73387.22
2023-07-24T19:12:07.630Z,73387.22
2023-07-24T19:14:35.170Z,73387.22
2023-07-24T19:17:02.603Z,73387.22
2023-07-24T19:19:29.806Z,73387.22
2023-07-24T19:21:57.402Z,73387.22
2023-07-24T19:24:24.685Z,73387.22
2023-07-24T19:26:52.056Z,73387.22
2023-07-24T19:29:20.213Z,73387.22
2023-07-24T19:31:48.558Z,73387.22
2023-07-24T19:34:15.968Z,73387.22
2023-07-24T19:36:44.971Z,73387.22
2023-07-24T19:39:12.528Z,73387.22
2023-07-24T19:41:39.795Z,73387.22
2023-07-24T19:44:07.473Z,73387.22
2023-07-24T19:46:34.675Z,73387.22
2023-07-24T19:49:02.393Z,73387.22
2023-07-24T19:51:30.124Z,73387.22
2023-07-24T19:53:57.981Z,73387.22
2023-07-24T19:56:25.382Z,73387.22
2023-07-24T19:58:52.691Z,73387.22
2023-07-24T20:01:22.927Z,73387.22
2023-07-24T20:03:50.670Z,73387.22
2023-07-24T20:06:18.885Z,73387.22
2023-07-24T20:08:46.325Z,73387.22
2023-07-24T20:11:14.586Z,73387.22
2023-07-24T20:13:42.017Z,73387.22
2023-07-24T20:16:09.351Z,73387.22
2023-07-24T20:18:36.705Z,73387.22
2023-07-24T20:21:04.511Z,73387.22
2023-07-24T20:23:31.917Z,73387.22
2023-07-24T20:26:00.231Z,73387.22
2023-07-24T20:28:27.960Z,73387.22
2023-07-24T20:30:55.685Z,73387.22
2023-07-24T20:33:24.452Z,73387.22
2023-07-24T20:35:52.399Z,73387.22
2023-07-24T20:38:28.775Z,73387.22
2023-07-24T20:40:57.907Z,73387.22
2023-07-24T20:43:25.503Z,73387.22
2023-07-24T20:45:53.081Z,73387.22
2023-07-24T20:48:21.668Z,73387.22
2023-07-24T20:50:49.145Z,73387.22
2023-07-24T20:53:16.369Z,73387.22
2023-07-24T20:55:43.711Z,73387.22
2023-07-24T20:58:11.110Z,73387.22
2023-07-24T21:00:38.228Z,73387.22
2023-07-24T21:03:05.736Z,73387.22
2023-07-24T21:05:36.313Z,73387.22
2023-07-24T21:08:05.006Z,73387.22
2023-07-24T21:10:32.201Z,73387.22
2023-07-24T21:12:59.423Z,73387.22
2023-07-24T21:15:26.679Z,73387.22
2023-07-24T21:17:53.970Z,73387.22
2023-07-24T21:20:21.305Z,73387.22
2023-07-24T21:22:49.013Z,73387.22
2023-07-24T21:25:17.077Z,73387.22
2023-07-24T21:27:44.451Z,73387.22
2023-07-24T21:30:12.254Z,73387.22
2023-07-24T21:32:40.218Z,73387.22
2023-07-24T21:35:07.811Z,73387.22
2023-07-24T21:37:35.144Z,73387.22
2023-07-24T21:40:02.496Z,73387.22
2023-07-24T21:42:29.819Z,73387.22
2023-07-24T21:44:56.883Z,73387.22
2023-07-24T21:47:24.234Z,73387.22
2023-07-24T21:49:51.438Z,73387.22
2023-07-24T21:52:18.798Z,73387.22
2023-07-24T21:54:46.115Z,73387.22
2023-07-24T21:57:14.166Z,73387.22
2023-07-24T21:59:41.341Z,73387.22
2023-07-24T22:02:08.610Z,73387.22
2023-07-24T22:04:36.324Z,73387.22
2023-07-24T22:07:04.188Z,73387.22
2023-07-24T22:09:31.570Z,73387.22
2023-07-24T22:11:58.838Z,73387.22
2023-07-24T22:14:26.013Z,73387.22
2023-07-24T22:16:53.199Z,73387.22
2023-07-24T22:19:20.426Z,73387.22
2023-07-24T22:21:48.680Z,73387.22
2023-07-24T22:24:15.980Z,73387.22
2023-07-24T22:26:43.892Z,73387.22
2023-07-24T22:29:11.340Z,73387.22
2023-07-24T22:31:38.578Z,73387.22
2023-07-24T22:34:05.800Z,73387.22
2023-07-24T22:36:33.205Z,73387.22
2023-07-24T22:39:03.638Z,73387.22
2023-07-24T22:41:31.067Z,73387.22
2023-07-24T22:43:58.633Z,73387.22
2023-07-24T22:46:26.135Z,73387.22
2023-07-24T22:48:53.519Z,73387.22
2023-07-24T22:51:20.901Z,73387.22
2023-07-24T22:53:48.866Z,73387.22
2023-07-24T22:56:16.362Z,73387.22
2023-07-24T22:59:15.659Z,73387.22
2023-07-24T23:01:42.966Z,73387.22
2023-07-24T23:04:10.202Z,73387.22
2023-07-24T23:06:37.421Z,73387.22
2023-07-24T23:09:05.040Z,73387.22
2023-07-24T23:11:33.608Z,73387.22
2023-07-24T23:14:01.209Z,73387.22
2023-07-24T23:16:28.566Z,73387.22
2023-07-24T23:18:56.239Z,73387.22
2023-07-24T23:21:23.544Z,73387.22
2023-07-24T23:23:52.541Z,73387.22
2023-07-24T23:26:20.451Z,73387.22
2023-07-24T23:28:48.162Z,73387.22
2023-07-24T23:31:15.863Z,73387.22
2023-07-24T23:33:43.270Z,73387.22
2023-07-24T23:36:11.074Z,73387.22
2023-07-24T23:38:38.589Z,73387.22
2023-07-24T23:41:08.044Z,73387.22
2023-07-24T23:43:35.517Z,73387.22
2023-07-24T23:46:11.152Z,73387.22
2023-07-24T23:48:38.882Z,73387.22
2023-07-24T23:51:12.675Z,73387.22
2023-07-24T23:53:39.931Z,73387.22
2023-07-24T23:56:07.411Z,73387.22
2023-07-24T23:58:34.742Z,73387.22
